Time;durP1;ratioP1;P1;durP2;ratioP2;P2;SDS_P1;SDS_P2;PMS_P1;PMS_P2;Temp;Humidity;BMP_temperature;BMP_pressure;BME280_temperature;BME280_humidity;BME280_pressure;Samples;Min_cycle;Max_cycle;Signal;HPM_P1;HPM_P2
2023/04/17 00:01:21;;;;;;;8.97;5.60;;;;;;;12.91;85.58;94121.00;5009822;28;20938;-75
2023/04/17 00:03:47;;;;;;;9.37;5.70;;;;;;;12.76;85.50;94118.94;5009716;28;20415;-75
2023/04/17 00:06:12;;;;;;;8.23;5.40;;;;;;;12.61;86.70;94124.00;5009984;28;20433;-75
2023/04/17 00:08:39;;;;;;;7.17;5.03;;;;;;;12.63;86.18;94113.19;5010778;28;20961;-75
2023/04/17 00:11:05;;;;;;;7.15;5.50;;;;;;;12.59;86.28;94117.34;5010661;28;20442;-75
2023/04/17 00:13:30;;;;;;;8.10;5.03;;;;;;;12.63;86.46;94118.47;5010956;28;20258;-75
2023/04/17 00:15:55;;;;;;;6.72;5.03;;;;;;;12.66;86.30;94116.16;5009864;28;20418;-75
2023/04/17 00:18:21;;;;;;;7.50;5.13;;;;;;;12.69;85.72;94112.22;4993944;28;21162;-75
2023/04/17 00:20:46;;;;;;;8.52;4.63;;;;;;;12.50;85.31;94080.00;5003356;28;20456;-75
2023/04/17 00:23:11;;;;;;;6.10;4.17;;;;;;;12.56;84.86;94088.78;5010944;28;21221;-75
2023/04/17 00:25:37;;;;;;;7.30;5.07;;;;;;;12.57;85.57;94112.31;5007366;28;20416;-75
2023/04/17 00:28:02;;;;;;;5.90;4.23;;;;;;;12.56;85.67;94110.72;5011038;28;20948;-75
2023/04/17 00:30:28;;;;;;;6.20;4.40;;;;;;;12.58;85.44;94115.75;5010091;28;20430;-75
2023/04/17 00:32:53;;;;;;;6.17;4.47;;;;;;;12.55;85.72;94108.31;5009664;28;20990;-75
2023/04/17 00:35:18;;;;;;;5.83;3.77;;;;;;;12.63;84.62;94118.47;5010596;28;20388;-75
2023/04/17 00:37:44;;;;;;;3.93;3.50;;;;;;;12.55;84.94;94124.16;5010532;28;20615;-75
2023/04/17 00:40:10;;;;;;;6.37;4.10;;;;;;;12.41;85.75;94113.94;5010387;28;20414;-75
2023/04/17 00:42:35;;;;;;;6.18;4.07;;;;;;;12.32;86.35;94111.91;5025204;28;20923;-75
2023/04/17 00:45:01;;;;;;;7.63;4.70;;;;;;;12.28;86.88;94108.19;5009517;28;20421;-75
2023/04/17 00:47:26;;;;;;;6.73;5.00;;;;;;;12.22;87.69;94106.47;5009748;28;20440;-75
2023/04/17 00:49:52;;;;;;;5.23;4.17;;;;;;;12.36;87.21;94103.31;5009452;28;20449;-75
2023/04/17 00:52:28;;;;;;;5.00;3.73;;;;;;;12.53;85.41;94108.56;4998105;28;20859;-75
2023/04/17 00:54:54;;;;;;;4.45;3.60;;;;;;;12.48;85.44;94097.91;5007340;28;20450;-75
2023/04/17 00:57:19;;;;;;;6.07;3.83;;;;;;;12.49;85.38;94094.25;5009213;28;20446;-75
2023/04/17 00:59:47;;;;;;;6.53;4.00;;;;;;;12.39;85.46;94075.59;5009953;28;20446;-75
2023/04/17 01:02:12;;;;;;;7.28;4.25;;;;;;;12.59;85.26;94091.75;5009129;28;20462;-75
2023/04/17 01:04:38;;;;;;;5.17;3.63;;;;;;;12.72;84.15;94090.59;5028174;28;20460;-75
2023/04/17 01:07:03;;;;;;;6.13;3.47;;;;;;;12.52;84.43;94062.09;4996030;28;20423;-75
2023/04/17 01:09:29;;;;;;;3.83;3.10;;;;;;;12.69;84.06;94093.75;5006850;28;20242;-75
2023/04/17 01:12:14;;;;;;;6.63;2.97;;;;;;;12.69;84.04;94081.34;5014293;28;20263;-75
2023/04/17 01:14:40;;;;;;;4.72;3.38;;;;;;;12.66;84.06;94087.09;5012686;28;20418;-75
2023/04/17 01:17:05;;;;;;;7.68;3.22;;;;;;;12.56;84.15;94068.47;5012982;28;20491;-75
2023/04/17 01:19:31;;;;;;;5.47;2.93;;;;;;;12.65;83.69;94087.34;5013926;28;20180;-75
2023/04/17 01:21:56;;;;;;;3.23;2.60;;;;;;;12.65;83.67;94085.50;5013813;28;20172;-75
2023/04/17 01:24:22;;;;;;;5.83;2.87;;;;;;;12.57;83.74;94082.47;5013540;28;20796;-75
2023/04/17 01:26:47;;;;;;;5.20;2.80;;;;;;;12.45;84.11;94080.72;5012910;28;20418;-75
2023/04/17 01:29:13;;;;;;;7.63;3.83;;;;;;;12.37;84.84;94093.50;5012649;28;20413;-75
2023/04/17 01:31:38;;;;;;;6.93;3.40;;;;;;;12.39;83.53;94097.53;5012085;28;20807;-75
2023/04/17 01:34:03;;;;;;;7.90;3.23;;;;;;;12.33;84.34;94090.56;5012896;28;20798;-75
2023/04/17 01:36:29;;;;;;;5.00;2.93;;;;;;;12.44;83.84;94092.34;5013758;28;20263;-75
2023/04/17 01:38:54;;;;;;;8.03;4.33;;;;;;;12.46;83.90;94097.34;5013530;28;20442;-75
2023/04/17 01:41:20;;;;;;;7.93;3.80;;;;;;;12.24;83.89;94065.63;5012934;28;21002;-75
2023/04/17 01:43:46;;;;;;;5.73;2.87;;;;;;;12.48;82.88;94090.00;5013921;28;20291;-75
2023/04/17 01:46:12;;;;;;;6.78;3.60;;;;;;;12.50;81.31;94087.13;5013396;28;20831;-75
2023/04/17 01:48:38;;;;;;;7.88;3.25;;;;;;;12.43;81.19;94082.81;5004708;28;20478;-75
2023/04/17 01:51:04;;;;;;;11.87;3.60;;;;;;;12.50;80.82;94073.94;4997493;28;20204;-75
2023/04/17 01:53:30;;;;;;;8.33;3.20;;;;;;;12.55;80.38;94074.78;5013112;28;20439;-75
2023/04/17 01:55:56;;;;;;;6.22;3.47;;;;;;;12.56;79.81;94081.66;4993276;28;20515;-75
2023/04/17 01:58:22;;;;;;;7.43;3.57;;;;;;;12.52;79.24;94075.28;5006580;28;20505;-75
2023/04/17 02:00:48;;;;;;;10.87;3.80;;;;;;;12.46;80.10;94071.75;5012704;28;20444;-75
2023/04/17 02:03:14;;;;;;;7.73;3.80;;;;;;;12.59;80.40;94075.13;5008588;28;20416;-75
2023/04/17 02:05:40;;;;;;;8.52;4.15;;;;;;;12.63;80.30;94068.28;4992640;28;20424;-75
2023/04/17 02:08:06;;;;;;;6.17;4.50;;;;;;;12.58;80.85;94063.75;5027129;28;20188;-75
2023/04/17 02:10:32;;;;;;;8.87;4.23;;;;;;;12.59;81.40;94069.84;5009235;28;20689;-75
2023/04/17 02:12:57;;;;;;;7.90;4.23;;;;;;;12.58;82.80;94060.31;5001842;28;20228;-75
2023/04/17 02:15:22;;;;;;;10.37;4.43;;;;;;;12.57;83.41;94061.34;5011193;28;20568;-75
2023/04/17 02:17:48;;;;;;;7.80;5.03;;;;;;;12.52;84.54;94066.56;5013097;28;20177;-75
2023/04/17 02:20:14;;;;;;;10.70;6.13;;;;;;;12.39;85.64;94065.84;5011529;28;20529;-75
2023/04/17 02:22:39;;;;;;;8.27;5.77;;;;;;;12.35;85.89;94070.03;5000931;28;20514;-75
2023/04/17 02:25:05;;;;;;;9.13;6.07;;;;;;;12.26;86.50;94052.19;5001425;28;20921;-75
2023/04/17 02:27:31;;;;;;;11.03;7.00;;;;;;;12.14;86.96;94039.06;4993602;28;20444;-75
2023/04/17 02:29:56;;;;;;;10.43;5.83;;;;;;;12.23;87.58;94056.09;5005034;28;20201;-75
2023/04/17 02:32:22;;;;;;;10.20;6.23;;;;;;;12.21;88.18;94068.72;5012619;28;20453;-75
2023/04/17 02:34:47;;;;;;;11.05;7.03;;;;;;;12.18;88.49;94063.94;5012106;28;20467;-74
2023/04/17 02:37:13;;;;;;;7.53;5.67;;;;;;;12.13;88.66;94066.50;4998793;28;20181;-75
2023/04/17 02:39:38;;;;;;;9.90;6.90;;;;;;;12.11;89.37;94065.16;4992208;28;20955;-75
2023/04/17 02:42:04;;;;;;;9.13;5.97;;;;;;;12.10;89.10;94059.06;4993081;28;20255;-75
2023/04/17 02:44:29;;;;;;;12.17;5.70;;;;;;;12.10;89.32;94067.00;5007667;28;20180;-75
2023/04/17 02:46:54;;;;;;;11.93;6.53;;;;;;;12.15;88.94;94071.53;5012469;28;20430;-75
2023/04/17 02:49:20;;;;;;;8.90;6.27;;;;;;;12.08;89.05;94067.22;5012411;28;20168;-75
2023/04/17 02:51:45;;;;;;;11.10;6.90;;;;;;;12.08;89.53;94064.59;5011371;28;20482;-75
2023/04/17 02:54:11;;;;;;;11.90;7.40;;;;;;;12.09;89.81;94060.13;5010924;28;20419;-75
2023/04/17 02:56:36;;;;;;;10.83;6.67;;;;;;;12.13;89.38;94070.97;5012403;28;20183;-75
2023/04/17 02:59:02;;;;;;;6.97;6.03;;;;;;;12.15;89.37;94066.25;4994378;28;20211;-75
2023/04/17 03:01:28;;;;;;;11.10;6.10;;;;;;;12.07;89.40;94054.28;5002850;28;20184;-75
2023/04/17 03:03:54;;;;;;;10.48;5.97;;;;;;;11.96;89.44;94040.09;5011937;28;20425;-75
2023/04/17 03:06:20;;;;;;;11.05;7.65;;;;;;;12.10;89.87;94067.00;5025715;28;20429;-75
2023/04/17 03:08:46;;;;;;;12.48;6.18;;;;;;;12.08;89.64;94075.13;5010932;28;20922;-75
2023/04/17 03:11:11;;;;;;;9.75;6.53;;;;;;;12.12;89.77;94079.91;5011049;28;20517;-75
2023/04/17 03:13:37;;;;;;;12.03;6.87;;;;;;;12.13;89.60;94077.03;5011512;28;20456;-75
2023/04/17 03:16:03;;;;;;;10.60;6.23;;;;;;;12.14;89.45;94078.66;5010588;28;20483;-75
2023/04/17 03:18:29;;;;;;;8.32;5.88;;;;;;;12.20;88.52;94087.44;5011212;28;20410;-75
2023/04/17 03:20:55;;;;;;;9.95;6.38;;;;;;;12.06;88.48;94066.66;5011337;28;20423;-75
2023/04/17 03:23:20;;;;;;;10.37;6.10;;;;;;;12.20;88.34;94079.53;5010738;28;20422;-75
2023/04/17 03:25:46;;;;;;;8.77;5.20;;;;;;;12.14;88.15;94083.13;5011490;28;20624;-75
2023/04/17 03:28:12;;;;;;;9.60;5.88;;;;;;;12.15;88.10;94077.63;5010566;28;20421;-75
2023/04/17 03:30:37;;;;;;;8.43;5.67;;;;;;;12.08;88.47;94087.53;5010504;28;20438;-75
2023/04/17 03:33:03;;;;;;;8.17;6.07;;;;;;;12.15;88.01;94082.09;5011125;28;20516;-75
2023/04/17 03:35:28;;;;;;;8.20;5.20;;;;;;;12.18;88.02;94089.53;5011561;28;20267;-75
2023/04/17 03:37:53;;;;;;;9.02;5.28;;;;;;;11.89;87.58;94038.66;5010217;28;20831;-75
2023/04/17 03:40:19;;;;;;;7.53;5.20;;;;;;;12.20;87.64;94084.78;5011441;28;21075;-75
2023/04/17 03:42:44;;;;;;;9.38;4.68;;;;;;;12.27;87.03;94080.19;5011475;28;20430;-75
2023/04/17 03:45:10;;;;;;;9.37;5.27;;;;;;;12.19;87.28;94084.03;5005644;28;20189;-75
2023/04/17 03:47:35;;;;;;;8.07;4.13;;;;;;;12.14;87.50;94077.84;4999805;28;20687;-75
2023/04/17 03:50:00;;;;;;;9.60;5.43;;;;;;;12.08;87.71;94080.41;5003255;28;20466;-75
2023/04/17 03:52:26;;;;;;;11.57;4.77;;;;;;;11.83;87.58;94050.97;5011002;28;20419;-75
2023/04/17 03:54:51;;;;;;;12.17;5.03;;;;;;;12.04;87.17;94083.75;5010184;28;20414;-75
2023/04/17 03:57:17;;;;;;;8.57;4.93;;;;;;;12.06;87.54;94086.97;5009894;28;20533;-75
2023/04/17 03:59:42;;;;;;;7.87;4.83;;;;;;;11.93;87.68;94082.81;5010027;28;20402;-75
2023/04/17 04:02:07;;;;;;;7.63;3.83;;;;;;;11.91;87.42;94081.44;5011266;28;20645;-75
2023/04/17 04:04:33;;;;;;;7.80;4.30;;;;;;;11.86;87.60;94081.31;5010456;28;20410;-75
2023/04/17 04:07:00;;;;;;;8.90;4.55;;;;;;;12.01;86.63;94090.31;5024894;28;20425;-75
2023/04/17 04:09:26;;;;;;;7.30;4.60;;;;;;;11.95;86.90;94088.63;5009994;28;20418;-75
2023/04/17 04:11:51;;;;;;;9.40;4.80;;;;;;;11.72;86.50;94049.97;5009453;28;20414;-75
2023/04/17 04:14:17;;;;;;;10.18;4.90;;;;;;;11.88;86.52;94087.16;5010542;28;20477;-75
2023/04/17 04:16:42;;;;;;;7.10;4.57;;;;;;;11.83;86.45;94087.09;5010278;28;20525;-75
2023/04/17 04:19:07;;;;;;;6.97;4.03;;;;;;;11.73;86.22;94085.84;5000714;28;20185;-75
2023/04/17 04:21:33;;;;;;;7.63;4.73;;;;;;;11.82;85.77;94096.84;4989772;28;20419;-75
2023/04/17 04:23:58;;;;;;;7.30;3.90;;;;;;;11.77;85.97;94090.66;5007558;28;20176;-75
2023/04/17 04:26:26;;;;;;;10.37;4.67;;;;;;;11.81;86.39;94087.31;5001819;28;20169;-75
2023/04/17 04:28:52;;;;;;;9.17;4.80;;;;;;;11.86;86.54;94102.44;4992782;28;20209;-76
2023/04/17 04:31:17;;;;;;;7.13;4.25;;;;;;;11.90;85.54;94098.28;4991238;28;20448;-76
2023/04/17 04:33:44;;;;;;;10.13;4.00;;;;;;;11.91;85.35;94097.25;4991490;28;20181;-76
2023/04/17 04:36:12;;;;;;;7.63;4.10;;;;;;;11.95;85.38;94101.00;4991509;28;20681;-76
2023/04/17 04:38:38;;;;;;;8.13;4.37;;;;;;;12.00;85.38;94099.28;5004610;28;20226;-76
2023/04/17 04:41:09;;;;;;;21.70;5.27;;;;;;;12.10;85.22;94103.94;5015288;28;20580;-76
2023/04/17 04:43:35;;;;;;;7.33;3.83;;;;;;;12.10;84.88;94103.94;5014795;28;20188;-76
2023/04/17 04:46:00;;;;;;;8.40;4.33;;;;;;;12.16;84.25;94102.16;5015132;28;20176;-76
2023/04/17 04:48:25;;;;;;;7.97;3.83;;;;;;;12.13;84.35;94103.44;5005900;28;20642;-76
2023/04/17 04:50:51;;;;;;;8.30;4.13;;;;;;;12.16;83.92;94105.59;5008004;28;20201;-76
2023/04/17 04:53:16;;;;;;;8.20;4.63;;;;;;;12.14;83.93;94098.97;5013768;28;20271;-76
2023/04/17 04:55:42;;;;;;;5.77;3.73;;;;;;;12.15;84.49;94101.34;5011870;28;20180;-76
2023/04/17 04:58:07;;;;;;;9.60;3.70;;;;;;;12.17;83.38;94109.84;5008540;28;20192;-76
2023/04/17 05:00:32;;;;;;;7.33;4.37;;;;;;;12.15;83.34;94101.34;5006896;28;20227;-76
2023/04/17 05:02:58;;;;;;;10.40;4.00;;;;;;;12.14;83.23;94105.03;5001858;28;20178;-76
2023/04/17 05:05:24;;;;;;;9.30;4.07;;;;;;;12.16;83.28;94105.59;5011593;28;20208;-76
2023/04/17 05:07:52;;;;;;;6.83;4.40;;;;;;;11.99;82.91;94071.28;5000225;28;21064;-76
2023/04/17 05:10:17;;;;;;;5.40;4.20;;;;;;;12.12;83.08;94107.09;4998531;28;20332;-77
2023/04/17 05:12:43;;;;;;;6.20;4.10;;;;;;;12.13;83.45;94103.44;5003338;28;20959;-77
2023/04/17 05:15:09;;;;;;;7.43;3.90;;;;;;;12.08;82.57;94098.88;5010429;28;20196;-77
2023/04/17 05:17:35;;;;;;;8.80;4.47;;;;;;;12.18;82.05;94106.16;5006751;28;20177;-77
2023/04/17 05:20:00;;;;;;;7.77;3.90;;;;;;;12.25;81.85;94116.56;5006631;28;20179;-77
2023/04/17 05:22:26;;;;;;;9.77;4.53;;;;;;;12.26;81.80;94110.25;5005971;28;20545;-77
2023/04/17 05:24:51;;;;;;;9.50;4.10;;;;;;;12.13;81.31;94098.16;5006958;28;20171;-77
2023/04/17 05:27:17;;;;;;;8.53;4.97;;;;;;;12.24;81.12;94115.75;4999689;28;20185;-77
2023/04/17 05:29:42;;;;;;;5.27;3.97;;;;;;;12.23;81.49;94111.53;5013441;28;20287;-77
2023/04/17 05:32:07;;;;;;;7.17;4.13;;;;;;;12.27;81.50;94115.28;5001507;28;20188;-77
2023/04/17 05:34:33;;;;;;;15.97;4.93;;;;;;;12.29;80.91;94112.38;5003032;28;20185;-77
2023/04/17 05:36:58;;;;;;;8.93;4.27;;;;;;;12.21;81.08;94095.13;5006470;28;20183;-77
2023/04/17 05:39:24;;;;;;;6.43;4.47;;;;;;;12.39;80.53;94116.00;5014519;28;20220;-77
2023/04/17 05:41:49;;;;;;;10.43;4.70;;;;;;;12.29;80.86;94118.47;5004649;28;20597;-77
2023/04/17 05:44:14;;;;;;;9.30;4.87;;;;;;;12.22;80.77;94096.72;5003261;28;20216;-77
2023/04/17 05:46:40;;;;;;;9.70;4.93;;;;;;;12.33;81.19;94109.03;5002898;28;20184;-77
2023/04/17 05:49:11;;;;;;;9.67;4.43;;;;;;;12.43;80.74;94121.59;5005884;28;20180;-77
2023/04/17 05:51:36;;;;;;;11.13;4.60;;;;;;;12.38;80.05;94098.56;5005651;28;20251;-77
2023/04/17 05:54:02;;;;;;;7.63;4.23;;;;;;;12.53;79.41;94120.97;5014357;28;20255;-77
2023/04/17 05:56:27;;;;;;;9.60;4.40;;;;;;;12.48;79.03;94119.84;5014278;28;20206;-77
2023/04/17 05:58:54;;;;;;;6.70;4.60;;;;;;;12.48;79.14;94129.59;5005617;28;20612;-77
2023/04/17 06:01:21;;;;;;;9.13;4.17;;;;;;;12.55;78.53;94124.94;5014046;28;20179;-77
2023/04/17 06:03:47;;;;;;;11.27;4.17;;;;;;;12.41;78.45;94127.13;5007272;28;20188;-77
2023/04/17 06:06:13;;;;;;;10.97;5.10;;;;;;;12.42;78.98;94126.09;4994444;28;20185;-77
2023/04/17 06:08:38;;;;;;;8.87;5.37;;;;;;;12.32;79.36;94133.03;4999625;28;20169;-77
2023/04/17 06:11:04;;;;;;;11.17;5.47;;;;;;;12.31;78.99;94116.41;4997088;28;20220;-77
2023/04/17 06:13:29;;;;;;;11.07;5.50;;;;;;;12.52;79.31;94140.50;5005547;28;20187;-77
2023/04/17 06:15:55;;;;;;;11.93;4.30;;;;;;;12.23;79.30;94143.19;5000716;28;20280;-77
2023/04/17 06:18:20;;;;;;;7.27;4.80;;;;;;;12.11;80.17;94126.59;5004854;28;20673;-77
2023/04/17 06:20:46;;;;;;;9.00;4.50;;;;;;;12.30;80.14;94143.81;5006639;28;20244;-77
2023/04/17 06:23:11;;;;;;;9.87;4.90;;;;;;;12.41;79.76;94137.69;5013676;28;20559;-77
2023/04/17 06:25:37;;;;;;;9.70;5.00;;;;;;;12.20;79.42;94109.34;5002526;28;20635;-77
2023/04/17 06:28:02;;;;;;;7.57;4.50;;;;;;;12.46;79.51;94143.03;5008391;28;20212;-76
2023/04/17 06:30:28;;;;;;;6.30;4.73;;;;;;;12.58;79.36;94142.97;5004707;28;20662;-77
2023/04/17 06:32:53;;;;;;;9.50;4.50;;;;;;;12.64;78.57;94151.75;5009203;28;20185;-75
2023/04/17 06:35:19;;;;;;;8.60;4.00;;;;;;;12.78;77.54;94151.19;5009441;28;20180;-76
2023/04/17 06:37:44;;;;;;;9.50;4.77;;;;;;;12.74;77.48;94151.91;5003142;28;20213;-74
2023/04/17 06:40:13;;;;;;;7.10;4.83;;;;;;;12.72;78.38;94159.25;5006955;28;20229;-74
2023/04/17 06:42:38;;;;;;;11.47;4.97;;;;;;;12.60;77.87;94146.16;5027662;28;20180;-74
2023/04/17 06:45:04;;;;;;;14.87;4.80;;;;;;;12.81;77.97;94163.09;4999666;28;20662;-74
2023/04/17 06:47:30;;;;;;;7.37;4.37;;;;;;;12.97;77.18;94156.22;5008629;28;20185;-74
2023/04/17 06:49:58;;;;;;;15.70;5.03;;;;;;;13.06;76.47;94162.69;4992995;28;20299;-74
2023/04/17 06:52:24;;;;;;;17.77;6.23;;;;;;;13.01;76.17;94154.69;5000727;28;20184;-74
2023/04/17 06:54:50;;;;;;;10.07;4.80;;;;;;;12.78;76.69;94127.44;4992484;28;20177;-74
2023/04/17 06:57:15;;;;;;;11.40;4.67;;;;;;;13.05;76.85;94151.34;4992699;28;20184;-74
2023/04/17 06:59:41;;;;;;;14.00;4.47;;;;;;;13.16;76.19;94154.91;5008479;28;20667;-74
2023/04/17 07:02:07;;;;;;;6.83;4.33;;;;;;;13.10;75.92;94167.25;5011711;28;20728;-74
2023/04/17 07:04:33;;;;;;;8.37;5.07;;;;;;;12.83;76.51;94163.66;5008419;28;20177;-74
2023/04/17 07:06:58;;;;;;;9.70;5.40;;;;;;;12.75;77.64;94151.69;5025118;28;20226;-74
2023/04/17 07:09:25;;;;;;;9.67;4.13;;;;;;;12.94;77.64;94156.69;5026432;28;20672;-75
2023/04/17 07:11:50;;;;;;;10.83;4.57;;;;;;;13.09;77.10;94157.72;4996229;28;20181;-75
2023/04/17 07:14:16;;;;;;;12.00;4.60;;;;;;;13.25;75.93;94157.94;5000436;28;20188;-74
2023/04/17 07:16:41;;;;;;;8.80;4.60;;;;;;;13.41;75.29;94159.75;5000858;28;20173;-74
2023/04/17 07:19:07;;;;;;;9.30;5.53;;;;;;;13.56;75.35;94167.88;4992140;28;20181;-74
2023/04/17 07:21:33;;;;;;;12.80;4.97;;;;;;;13.73;73.90;94176.56;5009568;28;20646;-76
2023/04/17 07:23:58;;;;;;;9.60;4.70;;;;;;;13.34;74.51;94175.78;4999167;28;20242;-75
2023/04/17 07:26:24;;;;;;;7.83;4.33;;;;;;;13.31;75.01;94180.78;5004994;28;20184;-75
2023/04/17 07:28:50;;;;;;;10.13;4.40;;;;;;;13.00;75.96;94153.88;5001924;28;20615;-76
2023/04/17 07:31:15;;;;;;;9.47;5.30;;;;;;;13.17;75.57;94173.19;5005267;28;20208;-75
2023/04/17 07:33:41;;;;;;;7.17;4.47;;;;;;;13.34;75.33;94177.63;5003999;28;20191;-75
2023/04/17 07:36:10;;;;;;;8.93;4.97;;;;;;;13.23;76.07;94174.06;5002074;28;20212;-74
2023/04/17 07:38:36;;;;;;;7.97;4.77;;;;;;;13.34;75.53;94167.84;5001033;28;20232;-74
2023/04/17 07:41:02;;;;;;;10.37;5.30;;;;;;;13.26;75.05;94138.41;4993461;28;20192;-75
2023/04/17 07:43:27;;;;;;;7.70;5.03;;;;;;;13.66;74.66;94170.66;5007769;28;20242;-75
2023/04/17 07:45:53;;;;;;;10.53;5.00;;;;;;;13.81;72.74;94165.53;4992127;28;20169;-75
2023/04/17 07:48:21;;;;;;;11.37;4.70;;;;;;;14.13;73.41;94172.75;5010718;28;20218;-75
2023/04/17 07:50:48;;;;;;;9.87;5.27;;;;;;;14.26;71.29;94161.78;5011474;28;20200;-76
2023/04/17 07:53:13;;;;;;;9.17;5.23;;;;;;;14.45;70.82;94178.91;5002236;28;20204;-76
2023/04/17 07:55:38;;;;;;;9.27;4.87;;;;;;;14.63;69.59;94175.88;4999864;28;20678;-76
2023/04/17 07:58:05;;;;;;;9.33;5.10;;;;;;;14.52;69.49;94168.94;5000264;28;20176;-78
2023/04/17 08:00:31;;;;;;;11.43;4.93;;;;;;;14.45;69.30;94173.59;5004297;28;20639;-77
2023/04/17 08:02:57;;;;;;;6.57;4.20;;;;;;;14.42;69.06;94170.69;5004756;28;20732;-77
2023/04/17 08:05:23;;;;;;;8.33;4.23;;;;;;;14.36;69.84;94185.69;5002217;28;20184;-77
2023/04/17 08:07:48;;;;;;;7.27;4.67;;;;;;;14.01;70.57;94166.81;5003573;28;20188;-77
2023/04/17 08:10:14;;;;;;;10.03;5.87;;;;;;;13.96;71.21;94178.94;5005618;28;20287;-76
2023/04/17 08:12:40;;;;;;;10.73;5.37;;;;;;;14.07;71.82;94194.91;5001635;28;20586;-75
2023/04/17 08:15:06;;;;;;;14.83;5.00;;;;;;;13.83;71.95;94189.91;5002844;28;20661;-76
2023/04/17 08:17:34;;;;;;;10.63;4.87;;;;;;;13.58;73.14;94179.78;5001501;28;20176;-75
2023/04/17 08:20:01;;;;;;;8.80;4.87;;;;;;;13.60;73.33;94185.66;5003525;28;20207;-76
2023/04/17 08:22:27;;;;;;;13.73;5.13;;;;;;;13.55;73.78;94153.88;5010696;28;20214;-76
2023/04/17 08:24:56;;;;;;;8.80;4.70;;;;;;;13.59;73.91;94172.66;5004263;28;20977;-75
2023/04/17 08:27:23;;;;;;;9.03;4.70;;;;;;;13.82;74.28;94175.06;4997597;28;20654;-75
2023/04/17 08:29:50;;;;;;;10.23;4.60;;;;;;;13.78;73.83;94175.81;5008725;28;20208;-75
2023/04/17 08:32:16;;;;;;;12.40;5.60;;;;;;;13.83;75.48;94178.53;4999143;28;20177;-77
2023/04/17 08:34:43;;;;;;;9.83;5.80;;;;;;;13.60;76.48;94145.19;5003270;28;20185;-77
2023/04/17 08:37:08;;;;;;;7.57;5.07;;;;;;;13.88;74.64;94173.28;5007677;28;20246;-76
2023/04/17 08:39:34;;;;;;;8.77;4.63;;;;;;;14.00;75.72;94181.88;4997388;28;21030;-77
2023/04/17 08:42:05;;;;;;;13.17;5.50;;;;;;;13.94;77.54;94185.50;4999814;28;20199;-77
2023/04/17 08:44:30;;;;;;;13.57;5.90;;;;;;;13.91;77.57;94184.19;5000155;28;20192;-77
2023/04/17 08:46:57;;;;;;;11.73;5.50;;;;;;;13.65;80.66;94179.63;5004688;28;20658;-79
2023/04/17 08:49:27;;;;;;;11.60;6.17;;;;;;;13.65;82.68;94179.63;5001518;28;20208;-75
2023/04/17 08:51:52;;;;;;;13.27;6.20;;;;;;;13.66;82.09;94177.78;5000438;28;20224;-77
2023/04/17 08:54:20;;;;;;;11.03;6.00;;;;;;;13.71;80.92;94186.56;4999787;28;20185;-77
2023/04/17 08:56:47;;;;;;;11.97;5.30;;;;;;;13.86;81.57;94181.47;5003628;28;20180;-76
2023/04/17 08:59:12;;;;;;;10.50;4.70;;;;;;;13.85;79.53;94184.34;4995870;28;20654;-77
2023/04/17 09:01:37;;;;;;;8.23;4.93;;;;;;;13.96;81.19;94183.41;4997998;28;20257;-77
2023/04/17 09:04:03;;;;;;;8.00;5.07;;;;;;;14.13;80.48;94180.69;5002738;28;20263;-77
2023/04/17 09:06:48;;;;;;;11.07;5.47;;;;;;;14.27;80.52;94174.72;4993683;28;20185;-75
2023/04/17 09:09:14;;;;;;;8.87;4.90;;;;;;;14.45;80.76;94191.34;5008447;28;20185;-76
2023/04/17 09:11:39;;;;;;;10.43;5.73;;;;;;;14.55;80.24;94184.31;5010948;28;20212;-78
2023/04/17 09:14:05;;;;;;;8.17;5.07;;;;;;;14.70;78.44;94191.59;5010985;28;20597;-75
2023/04/17 09:16:31;;;;;;;10.60;5.35;;;;;;;14.79;78.28;94190.06;4993541;28;20532;-76
2023/04/17 09:19:05;;;;;;;9.70;5.97;;;;;;;14.66;75.77;94186.00;5008832;28;20208;-76
2023/04/17 09:21:31;;;;;;;13.03;5.27;;;;;;;14.50;76.07;94184.28;5006381;28;20203;-76
2023/04/17 09:23:58;;;;;;;12.40;5.73;;;;;;;14.44;77.04;94185.28;5026149;28;20287;-76
2023/04/17 09:26:30;;;;;;;8.27;4.67;;;;;;;14.25;75.33;94184.81;5009547;28;20204;-76
2023/04/17 09:29:07;;;;;;;7.33;4.73;;;;;;;14.17;75.08;94176.50;5009727;28;20622;-75
2023/04/17 09:31:33;;;;;;;8.13;5.27;;;;;;;14.11;76.24;94162.41;5008659;28;20201;-75
2023/04/17 09:34:04;;;;;;;13.30;5.93;;;;;;;14.29;75.10;94179.78;5009137;28;20189;-75
2023/04/17 09:36:31;;;;;;;6.43;4.53;;;;;;;14.18;74.52;94183.41;4997245;28;20207;-76
2023/04/17 09:39:01;;;;;;;8.50;4.83;;;;;;;14.14;74.36;94177.00;5007023;28;20252;-76
2023/04/17 09:41:28;;;;;;;6.37;4.40;;;;;;;14.03;74.82;94180.56;5006037;28;20195;-75
2023/04/17 09:43:59;;;;;;;11.10;4.97;;;;;;;13.85;75.73;94179.06;5005048;28;20676;-75
2023/04/17 09:46:36;;;;;;;11.43;5.13;;;;;;;13.73;75.51;94181.03;5027147;28;20900;-76
2023/04/17 09:49:14;;;;;;;10.93;5.23;;;;;;;13.72;76.41;94203.25;5007903;28;20654;-76
2023/04/17 09:51:40;;;;;;;5.83;3.83;;;;;;;13.53;74.82;94198.25;5028950;28;20208;-76
2023/04/17 09:54:09;;;;;;;5.33;4.27;;;;;;;13.45;78.32;94166.94;5007980;28;20181;-76
2023/04/17 09:56:36;;;;;;;10.80;4.57;;;;;;;13.51;78.62;94167.81;5012579;28;20185;-76
2023/04/17 09:59:04;;;;;;;9.37;4.60;;;;;;;13.71;78.31;94175.19;5001058;28;20948;-76
2023/04/17 10:01:31;;;;;;;6.67;4.50;;;;;;;13.78;79.27;94173.16;5002773;28;20196;-76
2023/04/17 10:03:57;;;;;;;5.67;4.40;;;;;;;13.82;79.00;94172.44;4993993;28;20173;-76
2023/04/17 10:06:23;;;;;;;5.70;4.23;;;;;;;13.73;76.97;94171.25;4994325;28;20177;-76
2023/04/17 10:08:49;;;;;;;15.20;4.57;;;;;;;13.60;78.37;94153.91;4994278;28;20200;-75
2023/04/17 10:11:15;;;;;;;7.93;4.87;;;;;;;13.94;79.26;94170.44;4994286;28;20193;-76
2023/04/17 10:13:43;;;;;;;5.70;4.53;;;;;;;14.16;78.42;94174.91;4993970;28;20199;-76
2023/04/17 10:16:09;;;;;;;7.47;4.40;;;;;;;14.35;75.81;94168.22;5000578;28;20189;-76
2023/04/17 10:18:35;;;;;;;7.90;4.20;;;;;;;14.48;77.94;94167.03;5011110;28;20203;-75
2023/04/17 10:21:20;;;;;;;5.63;4.47;;;;;;;14.57;75.16;94166.31;5003642;28;20192;-76
2023/04/17 10:23:47;;;;;;;6.43;3.67;;;;;;;14.76;70.47;94176.53;5006126;28;20180;-75
2023/04/17 10:26:24;;;;;;;6.20;3.93;;;;;;;14.78;70.74;94167.28;5004713;28;20184;-76
2023/04/17 10:28:52;;;;;;;6.50;4.50;;;;;;;14.83;70.92;94167.31;4994810;28;20173;-76
2023/04/17 10:31:18;;;;;;;7.00;3.90;;;;;;;14.86;68.71;94163.38;4996705;28;20207;-75
2023/04/17 10:33:50;;;;;;;7.67;4.13;;;;;;;14.95;69.79;94165.28;5001865;28;20227;-77
2023/04/17 10:36:37;;;;;;;5.63;4.10;;;;;;;15.08;68.45;94167.50;5000362;28;20676;-77
2023/04/17 10:39:47;;;;;;;9.50;4.10;;;;;;;15.39;68.22;94160.50;5009306;28;20303;-76
2023/04/17 10:42:18;;;;;;;5.87;4.33;;;;;;;15.63;65.86;94155.63;5021976;28;20580;-77
2023/04/17 10:44:45;;;;;;;7.18;4.00;;;;;;;15.88;64.91;94157.56;5005379;28;20226;-77
2023/04/17 10:47:13;;;;;;;6.55;4.13;;;;;;;15.89;62.60;94161.81;5009908;28;20236;-76
2023/04/17 10:49:55;;;;;;;6.78;4.22;;;;;;;16.04;62.31;94164.53;5000979;28;20185;-76
2023/04/17 10:52:43;;;;;;;8.93;4.22;;;;;;;15.69;62.36;94164.41;5008278;28;20172;-75
2023/04/17 10:55:19;;;;;;;8.45;4.88;;;;;;;15.81;62.80;94154.38;5019025;28;20853;-75
2023/04/17 10:58:02;;;;;;;7.72;3.95;;;;;;;15.88;61.65;94164.75;4991380;28;20260;-75
2023/04/17 11:00:32;;;;;;;9.25;4.50;;;;;;;15.95;61.43;94152.00;4994982;28;20271;-75
2023/04/17 11:02:59;;;;;;;7.25;5.13;;;;;;;15.88;61.32;94143.50;5000906;28;20606;-75
2023/04/17 11:05:25;;;;;;;5.28;4.20;;;;;;;15.71;62.31;94149.81;4998525;28;20945;-76
2023/04/17 11:07:51;;;;;;;8.82;4.53;;;;;;;15.66;62.30;94149.78;5004203;28;20192;-76
2023/04/17 11:10:20;;;;;;;8.32;4.40;;;;;;;15.66;62.79;94151.63;5009284;28;20200;-76
2023/04/17 11:12:52;;;;;;;11.00;4.50;;;;;;;15.84;63.05;94146.66;4997661;28;20204;-79
2023/04/17 11:15:31;;;;;;;7.57;5.38;;;;;;;15.90;62.15;94126.25;4998244;28;20216;-76
2023/04/17 11:17:58;;;;;;;6.47;4.93;;;;;;;16.04;61.20;94142.47;5016579;28;20559;-75
2023/04/17 11:20:25;;;;;;;8.65;5.90;;;;;;;15.92;61.69;94134.75;4999530;28;20187;-75
2023/04/17 11:22:51;;;;;;;6.95;5.53;;;;;;;15.81;63.00;94136.59;5002636;28;20168;-76
2023/04/17 11:25:24;;;;;;;9.55;5.35;;;;;;;15.49;61.60;94146.50;4994511;28;20538;-76
2023/04/17 11:27:50;;;;;;;8.00;4.83;;;;;;;15.09;62.29;94128.53;4994841;28;20581;-75
2023/04/17 11:30:37;;;;;;;8.07;5.40;;;;;;;14.81;63.81;94150.06;5010611;28;20684;-78